sensor_id;sensor_type;location;lat;lon;timestamp;P1;durP1;ratioP1;P2;durP2;ratioP2
50649;SDS011;36621;60.058;30.346;2023-08-17T00:04:19;24.35;;;12.93;;
50649;SDS011;36621;60.058;30.346;2023-08-17T00:11:52;20.90;;;13.55;;
50649;SDS011;36621;60.058;30.346;2023-08-17T00:19:24;9.15;;;6.50;;
50649;SDS011;36621;60.058;30.346;2023-08-17T00:26:57;15.18;;;10.75;;
50649;SDS011;36621;60.058;30.346;2023-08-17T00:34:30;14.30;;;11.40;;
50649;SDS011;36621;60.058;30.346;2023-08-17T00:42:05;13.90;;;11.07;;
50649;SDS011;36621;60.058;30.346;2023-08-17T00:49:40;17.02;;;11.98;;
50649;SDS011;36621;60.058;30.346;2023-08-17T00:57:13;13.45;;;9.52;;
50649;SDS011;36621;60.058;30.346;2023-08-17T01:04:46;11.43;;;7.97;;
50649;SDS011;36621;60.058;30.346;2023-08-17T01:12:20;15.40;;;9.27;;
50649;SDS011;36621;60.058;30.346;2023-08-17T01:20:03;13.70;;;9.43;;
50649;SDS011;36621;60.058;30.346;2023-08-17T01:27:39;15.10;;;10.45;;
50649;SDS011;36621;60.058;30.346;2023-08-17T01:35:16;14.82;;;9.75;;
50649;SDS011;36621;60.058;30.346;2023-08-17T01:42:56;13.63;;;10.07;;
50649;SDS011;36621;60.058;30.346;2023-08-17T01:50:29;13.77;;;7.75;;
50649;SDS011;36621;60.058;30.346;2023-08-17T01:58:02;8.98;;;6.55;;
50649;SDS011;36621;60.058;30.346;2023-08-17T02:05:35;7.43;;;6.03;;
50649;SDS011;36621;60.058;30.346;2023-08-17T02:13:07;9.18;;;6.45;;
50649;SDS011;36621;60.058;30.346;2023-08-17T02:20:40;9.35;;;6.32;;
50649;SDS011;36621;60.058;30.346;2023-08-17T02:28:13;20.00;;;9.38;;
50649;SDS011;36621;60.058;30.346;2023-08-17T02:35:47;26.55;;;8.77;;
50649;SDS011;36621;60.058;30.346;2023-08-17T02:43:21;14.45;;;7.65;;
50649;SDS011;36621;60.058;30.346;2023-08-17T02:50:53;15.40;;;6.93;;
50649;SDS011;36621;60.058;30.346;2023-08-17T02:58:26;14.38;;;7.00;;
50649;SDS011;36621;60.058;30.346;2023-08-17T03:06:00;10.38;;;6.38;;
50649;SDS011;36621;60.058;30.346;2023-08-17T03:13:36;10.65;;;5.55;;
50649;SDS011;36621;60.058;30.346;2023-08-17T03:21:08;7.47;;;5.60;;
50649;SDS011;36621;60.058;30.346;2023-08-17T03:28:41;8.80;;;5.70;;
50649;SDS011;36621;60.058;30.346;2023-08-17T03:36:13;7.28;;;6.15;;
50649;SDS011;36621;60.058;30.346;2023-08-17T03:43:47;10.35;;;6.43;;
50649;SDS011;36621;60.058;30.346;2023-08-17T03:51:20;9.98;;;6.82;;
50649;SDS011;36621;60.058;30.346;2023-08-17T03:58:53;9.82;;;6.50;;
50649;SDS011;36621;60.058;30.346;2023-08-17T04:06:27;10.85;;;7.55;;
50649;SDS011;36621;60.058;30.346;2023-08-17T04:14:00;10.73;;;6.75;;
50649;SDS011;36621;60.058;30.346;2023-08-17T04:21:32;7.60;;;6.03;;
50649;SDS011;36621;60.058;30.346;2023-08-17T04:29:10;11.93;;;5.57;;
50649;SDS011;36621;60.058;30.346;2023-08-17T04:36:44;9.73;;;5.40;;
50649;SDS011;36621;60.058;30.346;2023-08-17T04:44:17;8.05;;;4.25;;
50649;SDS011;36621;60.058;30.346;2023-08-17T04:51:50;7.32;;;5.10;;
50649;SDS011;36621;60.058;30.346;2023-08-17T04:59:25;9.82;;;4.90;;
50649;SDS011;36621;60.058;30.346;2023-08-17T05:06:58;8.18;;;4.75;;
50649;SDS011;36621;60.058;30.346;2023-08-17T05:14:31;10.38;;;5.45;;
50649;SDS011;36621;60.058;30.346;2023-08-17T05:22:05;5.97;;;4.50;;
50649;SDS011;36621;60.058;30.346;2023-08-17T05:29:42;8.48;;;5.07;;
50649;SDS011;36621;60.058;30.346;2023-08-17T05:37:14;6.10;;;3.85;;
50649;SDS011;36621;60.058;30.346;2023-08-17T05:44:48;6.40;;;4.53;;
50649;SDS011;36621;60.058;30.346;2023-08-17T05:52:20;7.18;;;4.15;;
50649;SDS011;36621;60.058;30.346;2023-08-17T05:59:53;10.80;;;4.13;;
50649;SDS011;36621;60.058;30.346;2023-08-17T06:07:25;6.22;;;4.35;;
50649;SDS011;36621;60.058;30.346;2023-08-17T06:14:58;6.22;;;4.00;;
50649;SDS011;36621;60.058;30.346;2023-08-17T06:31:16;8.07;;;4.93;;
50649;SDS011;36621;60.058;30.346;2023-08-17T06:38:55;6.45;;;4.50;;
50649;SDS011;36621;60.058;30.346;2023-08-17T18:17:12;8.57;;;5.40;;
50649;SDS011;36621;60.058;30.346;2023-08-17T18:24:45;7.10;;;4.60;;
50649;SDS011;36621;60.058;30.346;2023-08-17T18:32:18;8.57;;;5.03;;
50649;SDS011;36621;60.058;30.346;2023-08-17T18:39:50;8.98;;;4.95;;
50649;SDS011;36621;60.058;30.346;2023-08-17T18:47:23;7.38;;;4.75;;
50649;SDS011;36621;60.058;30.346;2023-08-17T18:54:59;6.65;;;5.40;;
50649;SDS011;36621;60.058;30.346;2023-08-17T19:02:32;12.80;;;4.90;;
50649;SDS011;36621;60.058;30.346;2023-08-17T19:10:05;8.60;;;4.47;;
50649;SDS011;36621;60.058;30.346;2023-08-17T19:17:39;9.35;;;5.05;;
50649;SDS011;36621;60.058;30.346;2023-08-17T19:25:11;10.55;;;4.75;;
50649;SDS011;36621;60.058;30.346;2023-08-17T19:32:45;8.65;;;4.88;;
50649;SDS011;36621;60.058;30.346;2023-08-17T19:40:17;9.15;;;5.90;;
50649;SDS011;36621;60.058;30.346;2023-08-17T19:47:51;13.27;;;4.85;;
50649;SDS011;36621;60.058;30.346;2023-08-17T19:55:26;9.18;;;5.57;;
50649;SDS011;36621;60.058;30.346;2023-08-17T20:03:00;8.57;;;4.93;;
50649;SDS011;36621;60.058;30.346;2023-08-17T20:10:32;16.10;;;5.20;;
50649;SDS011;36621;60.058;30.346;2023-08-17T20:18:05;10.63;;;5.07;;
50649;SDS011;36621;60.058;30.346;2023-08-17T20:25:39;5.35;;;4.22;;
50649;SDS011;36621;60.058;30.346;2023-08-17T20:33:12;8.52;;;5.22;;
50649;SDS011;36621;60.058;30.346;2023-08-17T20:40:44;6.55;;;4.93;;
50649;SDS011;36621;60.058;30.346;2023-08-17T20:48:17;9.43;;;5.03;;
50649;SDS011;36621;60.058;30.346;2023-08-17T20:55:50;9.23;;;5.10;;
50649;SDS011;36621;60.058;30.346;2023-08-17T21:03:23;7.80;;;5.43;;
50649;SDS011;36621;60.058;30.346;2023-08-17T21:10:55;7.68;;;4.38;;
50649;SDS011;36621;60.058;30.346;2023-08-17T21:18:29;7.70;;;4.95;;
50649;SDS011;36621;60.058;30.346;2023-08-17T21:26:02;5.63;;;4.50;;
50649;SDS011;36621;60.058;30.346;2023-08-17T21:33:35;9.73;;;4.30;;
50649;SDS011;36621;60.058;30.346;2023-08-17T21:41:07;11.50;;;4.10;;
50649;SDS011;36621;60.058;30.346;2023-08-17T21:48:40;3.67;;;2.85;;
50649;SDS011;36621;60.058;30.346;2023-08-17T21:56:13;5.05;;;3.50;;
50649;SDS011;36621;60.058;30.346;2023-08-17T22:03:48;5.68;;;3.75;;
50649;SDS011;36621;60.058;30.346;2023-08-17T22:11:20;6.38;;;3.28;;
50649;SDS011;36621;60.058;30.346;2023-08-17T22:18:55;5.57;;;3.15;;
50649;SDS011;36621;60.058;30.346;2023-08-17T22:26:27;2.90;;;2.60;;
50649;SDS011;36621;60.058;30.346;2023-08-17T22:34:01;7.43;;;2.63;;
50649;SDS011;36621;60.058;30.346;2023-08-17T22:41:33;4.35;;;2.58;;
50649;SDS011;36621;60.058;30.346;2023-08-17T22:49:06;2.75;;;2.47;;
50649;SDS011;36621;60.058;30.346;2023-08-17T22:56:38;4.35;;;2.25;;
50649;SDS011;36621;60.058;30.346;2023-08-17T23:04:11;3.10;;;1.95;;
50649;SDS011;36621;60.058;30.346;2023-08-17T23:11:43;2.72;;;2.30;;
50649;SDS011;36621;60.058;30.346;2023-08-17T23:19:16;2.70;;;2.35;;
50649;SDS011;36621;60.058;30.346;2023-08-17T23:26:48;4.18;;;2.38;;
50649;SDS011;36621;60.058;30.346;2023-08-17T23:34:21;4.45;;;2.20;;
50649;SDS011;36621;60.058;30.346;2023-08-17T23:41:53;2.65;;;2.10;;
50649;SDS011;36621;60.058;30.346;2023-08-17T23:49:26;2.20;;;1.88;;
50649;SDS011;36621;60.058;30.346;2023-08-17T23:56:59;5.45;;;2.03;;
